sensor_id;sensor_type;location;lat;lon;timestamp;P1;durP1;ratioP1;P2;durP2;ratioP2
9884;SDS011;4981;50.966;4.842;2024-01-11T00:00:45;28.87;;;15.80;;
9884;SDS011;4981;50.966;4.842;2024-01-11T00:03:13;26.23;;;15.30;;
9884;SDS011;4981;50.966;4.842;2024-01-11T00:05:40;31.00;;;19.10;;
9884;SDS011;4981;50.966;4.842;2024-01-11T00:08:07;26.63;;;14.77;;
9884;SDS011;4981;50.966;4.842;2024-01-11T00:10:36;27.67;;;15.23;;
9884;SDS011;4981;50.966;4.842;2024-01-11T00:13:03;29.23;;;15.43;;
9884;SDS011;4981;50.966;4.842;2024-01-11T00:15:30;23.83;;;14.87;;
9884;SDS011;4981;50.966;4.842;2024-01-11T00:17:57;27.63;;;15.60;;
9884;SDS011;4981;50.966;4.842;2024-01-11T00:20:25;31.90;;;16.37;;
9884;SDS011;4981;50.966;4.842;2024-01-11T00:22:52;27.33;;;15.20;;
9884;SDS011;4981;50.966;4.842;2024-01-11T00:25:19;27.03;;;15.50;;
9884;SDS011;4981;50.966;4.842;2024-01-11T00:27:46;26.80;;;15.13;;
9884;SDS011;4981;50.966;4.842;2024-01-11T00:30:14;30.47;;;15.60;;
9884;SDS011;4981;50.966;4.842;2024-01-11T00:32:41;27.07;;;15.67;;
9884;SDS011;4981;50.966;4.842;2024-01-11T00:35:08;27.83;;;15.80;;
9884;SDS011;4981;50.966;4.842;2024-01-11T00:37:36;28.83;;;16.27;;
9884;SDS011;4981;50.966;4.842;2024-01-11T00:40:03;29.60;;;16.27;;
9884;SDS011;4981;50.966;4.842;2024-01-11T00:42:31;28.60;;;15.13;;
9884;SDS011;4981;50.966;4.842;2024-01-11T00:44:59;28.70;;;15.50;;
9884;SDS011;4981;50.966;4.842;2024-01-11T00:47:26;30.73;;;16.77;;
9884;SDS011;4981;50.966;4.842;2024-01-11T00:49:53;33.47;;;16.77;;
9884;SDS011;4981;50.966;4.842;2024-01-11T00:52:20;29.77;;;15.80;;
9884;SDS011;4981;50.966;4.842;2024-01-11T00:54:49;31.43;;;16.10;;
9884;SDS011;4981;50.966;4.842;2024-01-11T00:57:16;25.47;;;14.30;;
9884;SDS011;4981;50.966;4.842;2024-01-11T00:59:42;28.60;;;16.10;;
9884;SDS011;4981;50.966;4.842;2024-01-11T01:02:09;26.57;;;15.30;;
9884;SDS011;4981;50.966;4.842;2024-01-11T01:04:37;30.23;;;15.53;;
9884;SDS011;4981;50.966;4.842;2024-01-11T01:07:05;29.03;;;16.10;;
9884;SDS011;4981;50.966;4.842;2024-01-11T01:09:32;28.07;;;15.43;;
9884;SDS011;4981;50.966;4.842;2024-01-11T01:12:01;26.97;;;15.33;;
9884;SDS011;4981;50.966;4.842;2024-01-11T01:14:28;27.87;;;16.17;;
9884;SDS011;4981;50.966;4.842;2024-01-11T01:16:55;33.13;;;16.00;;
9884;SDS011;4981;50.966;4.842;2024-01-11T01:19:22;28.03;;;16.57;;
9884;SDS011;4981;50.966;4.842;2024-01-11T01:21:49;26.73;;;15.23;;
9884;SDS011;4981;50.966;4.842;2024-01-11T01:24:16;28.20;;;15.03;;
9884;SDS011;4981;50.966;4.842;2024-01-11T01:26:43;28.53;;;15.63;;
9884;SDS011;4981;50.966;4.842;2024-01-11T01:29:11;27.67;;;15.73;;
9884;SDS011;4981;50.966;4.842;2024-01-11T01:31:38;27.90;;;15.00;;
9884;SDS011;4981;50.966;4.842;2024-01-11T01:34:06;31.23;;;16.30;;
9884;SDS011;4981;50.966;4.842;2024-01-11T01:36:33;32.40;;;17.10;;
9884;SDS011;4981;50.966;4.842;2024-01-11T01:39:00;36.47;;;23.53;;
9884;SDS011;4981;50.966;4.842;2024-01-11T01:41:28;29.23;;;15.90;;
9884;SDS011;4981;50.966;4.842;2024-01-11T01:43:55;29.73;;;16.50;;
9884;SDS011;4981;50.966;4.842;2024-01-11T01:46:24;26.07;;;15.90;;
9884;SDS011;4981;50.966;4.842;2024-01-11T01:48:52;25.83;;;15.40;;
9884;SDS011;4981;50.966;4.842;2024-01-11T01:51:21;32.53;;;22.63;;
9884;SDS011;4981;50.966;4.842;2024-01-11T01:53:49;27.40;;;15.43;;
9884;SDS011;4981;50.966;4.842;2024-01-11T01:56:19;26.27;;;15.13;;
9884;SDS011;4981;50.966;4.842;2024-01-11T01:58:46;30.17;;;16.40;;
9884;SDS011;4981;50.966;4.842;2024-01-11T02:01:15;27.10;;;14.70;;
9884;SDS011;4981;50.966;4.842;2024-01-11T02:03:43;28.30;;;15.77;;
9884;SDS011;4981;50.966;4.842;2024-01-11T02:06:12;29.63;;;16.87;;
9884;SDS011;4981;50.966;4.842;2024-01-11T02:08:41;29.17;;;15.83;;
9884;SDS011;4981;50.966;4.842;2024-01-11T02:11:09;26.03;;;15.17;;
9884;SDS011;4981;50.966;4.842;2024-01-11T02:13:37;28.33;;;16.47;;
9884;SDS011;4981;50.966;4.842;2024-01-11T02:16:04;30.00;;;15.97;;
9884;SDS011;4981;50.966;4.842;2024-01-11T02:18:32;30.40;;;16.57;;
9884;SDS011;4981;50.966;4.842;2024-01-11T02:21:00;27.73;;;16.27;;
9884;SDS011;4981;50.966;4.842;2024-01-11T02:23:31;26.07;;;15.97;;
9884;SDS011;4981;50.966;4.842;2024-01-11T02:25:59;24.83;;;15.57;;
9884;SDS011;4981;50.966;4.842;2024-01-11T02:28:26;25.97;;;15.40;;
9884;SDS011;4981;50.966;4.842;2024-01-11T02:30:53;27.40;;;15.90;;
9884;SDS011;4981;50.966;4.842;2024-01-11T02:33:20;28.90;;;16.03;;
9884;SDS011;4981;50.966;4.842;2024-01-11T02:35:47;31.90;;;17.10;;
9884;SDS011;4981;50.966;4.842;2024-01-11T02:38:15;31.37;;;15.90;;
9884;SDS011;4981;50.966;4.842;2024-01-11T02:40:43;30.30;;;17.03;;
9884;SDS011;4981;50.966;4.842;2024-01-11T02:43:12;30.17;;;16.73;;
9884;SDS011;4981;50.966;4.842;2024-01-11T02:45:39;30.27;;;16.03;;
9884;SDS011;4981;50.966;4.842;2024-01-11T02:48:06;33.27;;;14.97;;
9884;SDS011;4981;50.966;4.842;2024-01-11T02:50:33;25.90;;;16.10;;
9884;SDS011;4981;50.966;4.842;2024-01-11T02:53:00;32.37;;;15.60;;
9884;SDS011;4981;50.966;4.842;2024-01-11T02:55:27;29.13;;;16.87;;
9884;SDS011;4981;50.966;4.842;2024-01-11T02:57:54;28.37;;;16.00;;
9884;SDS011;4981;50.966;4.842;2024-01-11T03:00:22;27.57;;;16.07;;
9884;SDS011;4981;50.966;4.842;2024-01-11T03:02:49;29.10;;;15.73;;
9884;SDS011;4981;50.966;4.842;2024-01-11T03:05:16;28.53;;;15.50;;
9884;SDS011;4981;50.966;4.842;2024-01-11T03:07:43;26.90;;;16.47;;
9884;SDS011;4981;50.966;4.842;2024-01-11T03:10:10;29.37;;;16.60;;
9884;SDS011;4981;50.966;4.842;2024-01-11T03:12:37;28.77;;;15.87;;
9884;SDS011;4981;50.966;4.842;2024-01-11T03:15:06;27.77;;;15.83;;
9884;SDS011;4981;50.966;4.842;2024-01-11T03:17:35;28.83;;;15.97;;
9884;SDS011;4981;50.966;4.842;2024-01-11T03:20:02;31.50;;;17.60;;
9884;SDS011;4981;50.966;4.842;2024-01-11T03:22:30;31.13;;;17.47;;
9884;SDS011;4981;50.966;4.842;2024-01-11T03:24:57;31.90;;;18.30;;
9884;SDS011;4981;50.966;4.842;2024-01-11T03:27:24;29.03;;;16.37;;
9884;SDS011;4981;50.966;4.842;2024-01-11T03:29:51;29.83;;;17.07;;
9884;SDS011;4981;50.966;4.842;2024-01-11T03:32:18;30.93;;;17.33;;
9884;SDS011;4981;50.966;4.842;2024-01-11T03:34:46;33.17;;;17.20;;
9884;SDS011;4981;50.966;4.842;2024-01-11T03:37:13;29.43;;;16.87;;
9884;SDS011;4981;50.966;4.842;2024-01-11T03:39:41;26.40;;;16.47;;
9884;SDS011;4981;50.966;4.842;2024-01-11T03:42:08;28.47;;;17.23;;
9884;SDS011;4981;50.966;4.842;2024-01-11T03:44:36;27.43;;;16.13;;
9884;SDS011;4981;50.966;4.842;2024-01-11T03:47:03;29.83;;;16.07;;
9884;SDS011;4981;50.966;4.842;2024-01-11T03:49:30;26.07;;;15.73;;
9884;SDS011;4981;50.966;4.842;2024-01-11T03:51:58;29.37;;;17.10;;
9884;SDS011;4981;50.966;4.842;2024-01-11T03:54:25;32.33;;;16.70;;
9884;SDS011;4981;50.966;4.842;2024-01-11T03:56:52;28.73;;;16.27;;
9884;SDS011;4981;50.966;4.842;2024-01-11T03:59:19;34.77;;;16.80;;
9884;SDS011;4981;50.966;4.842;2024-01-11T04:01:46;29.70;;;17.00;;
9884;SDS011;4981;50.966;4.842;2024-01-11T04:04:13;29.67;;;16.73;;
9884;SDS011;4981;50.966;4.842;2024-01-11T04:06:40;38.93;;;24.47;;
9884;SDS011;4981;50.966;4.842;2024-01-11T04:09:09;32.77;;;17.63;;
9884;SDS011;4981;50.966;4.842;2024-01-11T04:11:36;32.43;;;17.77;;
9884;SDS011;4981;50.966;4.842;2024-01-11T04:14:03;29.77;;;17.13;;
9884;SDS011;4981;50.966;4.842;2024-01-11T04:16:29;28.77;;;17.03;;
9884;SDS011;4981;50.966;4.842;2024-01-11T04:18:56;31.93;;;17.80;;
9884;SDS011;4981;50.966;4.842;2024-01-11T04:21:24;29.63;;;16.90;;
9884;SDS011;4981;50.966;4.842;2024-01-11T04:23:53;28.73;;;17.80;;
9884;SDS011;4981;50.966;4.842;2024-01-11T04:26:22;31.20;;;17.47;;
9884;SDS011;4981;50.966;4.842;2024-01-11T04:28:49;29.73;;;17.80;;
9884;SDS011;4981;50.966;4.842;2024-01-11T04:31:16;34.03;;;17.90;;
9884;SDS011;4981;50.966;4.842;2024-01-11T04:33:43;31.63;;;18.07;;
9884;SDS011;4981;50.966;4.842;2024-01-11T04:36:11;31.83;;;16.87;;
9884;SDS011;4981;50.966;4.842;2024-01-11T04:38:39;37.07;;;16.97;;
9884;SDS011;4981;50.966;4.842;2024-01-11T04:41:07;37.13;;;17.27;;
9884;SDS011;4981;50.966;4.842;2024-01-11T04:43:37;29.07;;;16.03;;
9884;SDS011;4981;50.966;4.842;2024-01-11T04:46:12;27.93;;;16.57;;
9884;SDS011;4981;50.966;4.842;2024-01-11T04:48:39;31.83;;;17.27;;
9884;SDS011;4981;50.966;4.842;2024-01-11T04:51:06;28.80;;;16.83;;
9884;SDS011;4981;50.966;4.842;2024-01-11T04:53:35;29.53;;;16.87;;
9884;SDS011;4981;50.966;4.842;2024-01-11T04:56:03;28.97;;;16.90;;
9884;SDS011;4981;50.966;4.842;2024-01-11T04:58:30;28.90;;;16.90;;
9884;SDS011;4981;50.966;4.842;2024-01-11T05:00:59;29.87;;;17.93;;
9884;SDS011;4981;50.966;4.842;2024-01-11T05:03:27;28.87;;;16.87;;
9884;SDS011;4981;50.966;4.842;2024-01-11T05:05:54;30.87;;;17.90;;
9884;SDS011;4981;50.966;4.842;2024-01-11T05:08:21;33.43;;;17.77;;
9884;SDS011;4981;50.966;4.842;2024-01-11T05:10:49;31.40;;;17.53;;
9884;SDS011;4981;50.966;4.842;2024-01-11T05:13:16;30.17;;;17.47;;
9884;SDS011;4981;50.966;4.842;2024-01-11T05:15:43;31.70;;;17.73;;
9884;SDS011;4981;50.966;4.842;2024-01-11T05:18:11;33.07;;;17.73;;
9884;SDS011;4981;50.966;4.842;2024-01-11T05:20:38;34.63;;;20.47;;
9884;SDS011;4981;50.966;4.842;2024-01-11T05:23:06;42.47;;;26.70;;
9884;SDS011;4981;50.966;4.842;2024-01-11T05:25:33;33.40;;;16.77;;
9884;SDS011;4981;50.966;4.842;2024-01-11T05:28:01;27.87;;;16.00;;
9884;SDS011;4981;50.966;4.842;2024-01-11T05:30:28;30.90;;;16.60;;
9884;SDS011;4981;50.966;4.842;2024-01-11T05:32:55;28.60;;;17.40;;
9884;SDS011;4981;50.966;4.842;2024-01-11T05:35:23;30.40;;;17.00;;
9884;SDS011;4981;50.966;4.842;2024-01-11T05:37:52;32.77;;;18.20;;
9884;SDS011;4981;50.966;4.842;2024-01-11T05:40:20;29.73;;;17.17;;
9884;SDS011;4981;50.966;4.842;2024-01-11T05:42:47;31.57;;;17.90;;
9884;SDS011;4981;50.966;4.842;2024-01-11T05:45:14;31.33;;;17.57;;
9884;SDS011;4981;50.966;4.842;2024-01-11T05:47:42;30.03;;;17.33;;
9884;SDS011;4981;50.966;4.842;2024-01-11T05:50:09;35.33;;;17.03;;
9884;SDS011;4981;50.966;4.842;2024-01-11T05:52:37;30.07;;;18.17;;
9884;SDS011;4981;50.966;4.842;2024-01-11T05:55:05;27.93;;;15.97;;
9884;SDS011;4981;50.966;4.842;2024-01-11T05:57:32;30.13;;;18.60;;
9884;SDS011;4981;50.966;4.842;2024-01-11T05:59:59;29.13;;;16.70;;
9884;SDS011;4981;50.966;4.842;2024-01-11T06:02:26;29.40;;;17.10;;
9884;SDS011;4981;50.966;4.842;2024-01-11T06:04:53;27.83;;;17.23;;
9884;SDS011;4981;50.966;4.842;2024-01-11T06:07:20;34.43;;;17.63;;
9884;SDS011;4981;50.966;4.842;2024-01-11T06:09:48;30.40;;;18.33;;
9884;SDS011;4981;50.966;4.842;2024-01-11T06:12:15;32.07;;;17.53;;
9884;SDS011;4981;50.966;4.842;2024-01-11T06:14:42;30.60;;;18.10;;
9884;SDS011;4981;50.966;4.842;2024-01-11T06:17:09;29.97;;;16.90;;
9884;SDS011;4981;50.966;4.842;2024-01-11T06:19:36;33.83;;;18.63;;
9884;SDS011;4981;50.966;4.842;2024-01-11T06:22:04;31.27;;;17.57;;
9884;SDS011;4981;50.966;4.842;2024-01-11T06:24:31;36.13;;;19.67;;
9884;SDS011;4981;50.966;4.842;2024-01-11T06:26:58;32.23;;;19.17;;
9884;SDS011;4981;50.966;4.842;2024-01-11T06:29:25;29.03;;;18.17;;
9884;SDS011;4981;50.966;4.842;2024-01-11T06:31:52;29.10;;;18.10;;
9884;SDS011;4981;50.966;4.842;2024-01-11T06:34:19;30.53;;;17.43;;
9884;SDS011;4981;50.966;4.842;2024-01-11T06:36:46;29.10;;;17.73;;
9884;SDS011;4981;50.966;4.842;2024-01-11T06:39:13;31.23;;;18.60;;
9884;SDS011;4981;50.966;4.842;2024-01-11T06:41:40;30.07;;;17.27;;
9884;SDS011;4981;50.966;4.842;2024-01-11T06:44:08;29.60;;;17.63;;
9884;SDS011;4981;50.966;4.842;2024-01-11T06:46:35;36.33;;;18.83;;
9884;SDS011;4981;50.966;4.842;2024-01-11T06:49:04;31.37;;;18.10;;
9884;SDS011;4981;50.966;4.842;2024-01-11T06:51:31;33.43;;;18.13;;
9884;SDS011;4981;50.966;4.842;2024-01-11T06:53:58;32.70;;;17.57;;
9884;SDS011;4981;50.966;4.842;2024-01-11T06:56:26;33.17;;;19.70;;
9884;SDS011;4981;50.966;4.842;2024-01-11T06:58:54;28.10;;;17.37;;
9884;SDS011;4981;50.966;4.842;2024-01-11T07:01:22;33.87;;;16.80;;
9884;SDS011;4981;50.966;4.842;2024-01-11T07:03:50;33.77;;;18.13;;
9884;SDS011;4981;50.966;4.842;2024-01-11T07:06:17;37.73;;;19.03;;
9884;SDS011;4981;50.966;4.842;2024-01-11T07:08:44;29.60;;;18.03;;
9884;SDS011;4981;50.966;4.842;2024-01-11T07:11:12;31.30;;;18.87;;
9884;SDS011;4981;50.966;4.842;2024-01-11T07:13:39;35.27;;;19.63;;
9884;SDS011;4981;50.966;4.842;2024-01-11T07:16:06;34.47;;;19.07;;
9884;SDS011;4981;50.966;4.842;2024-01-11T07:18:34;32.83;;;19.37;;
9884;SDS011;4981;50.966;4.842;2024-01-11T07:21:01;34.37;;;19.00;;
9884;SDS011;4981;50.966;4.842;2024-01-11T07:23:28;32.07;;;18.03;;
9884;SDS011;4981;50.966;4.842;2024-01-11T07:25:55;36.63;;;17.60;;
9884;SDS011;4981;50.966;4.842;2024-01-11T07:28:23;31.13;;;17.77;;
9884;SDS011;4981;50.966;4.842;2024-01-11T07:30:50;34.33;;;18.33;;
9884;SDS011;4981;50.966;4.842;2024-01-11T07:33:18;35.47;;;18.10;;
9884;SDS011;4981;50.966;4.842;2024-01-11T07:35:47;29.20;;;18.03;;
9884;SDS011;4981;50.966;4.842;2024-01-11T07:38:14;36.93;;;19.57;;
9884;SDS011;4981;50.966;4.842;2024-01-11T07:40:41;35.43;;;19.27;;
9884;SDS011;4981;50.966;4.842;2024-01-11T07:43:08;34.30;;;18.10;;
9884;SDS011;4981;50.966;4.842;2024-01-11T07:45:35;31.33;;;19.07;;
9884;SDS011;4981;50.966;4.842;2024-01-11T07:48:02;33.17;;;19.80;;
9884;SDS011;4981;50.966;4.842;2024-01-11T07:50:30;35.53;;;20.13;;
9884;SDS011;4981;50.966;4.842;2024-01-11T07:52:58;34.50;;;19.23;;
9884;SDS011;4981;50.966;4.842;2024-01-11T07:55:26;37.63;;;20.37;;
9884;SDS011;4981;50.966;4.842;2024-01-11T07:57:53;33.93;;;20.20;;
9884;SDS011;4981;50.966;4.842;2024-01-11T08:00:20;36.93;;;20.27;;
9884;SDS011;4981;50.966;4.842;2024-01-11T08:02:48;36.37;;;20.10;;
9884;SDS011;4981;50.966;4.842;2024-01-11T08:05:15;32.90;;;19.30;;
9884;SDS011;4981;50.966;4.842;2024-01-11T08:07:42;38.70;;;20.23;;
9884;SDS011;4981;50.966;4.842;2024-01-11T08:10:09;34.83;;;20.43;;
9884;SDS011;4981;50.966;4.842;2024-01-11T08:12:36;33.10;;;20.13;;
9884;SDS011;4981;50.966;4.842;2024-01-11T08:15:04;36.30;;;20.57;;
9884;SDS011;4981;50.966;4.842;2024-01-11T08:17:31;38.07;;;20.60;;
9884;SDS011;4981;50.966;4.842;2024-01-11T08:19:58;34.47;;;19.10;;
9884;SDS011;4981;50.966;4.842;2024-01-11T08:22:25;33.43;;;19.47;;
9884;SDS011;4981;50.966;4.842;2024-01-11T08:24:53;34.67;;;19.70;;
9884;SDS011;4981;50.966;4.842;2024-01-11T08:27:22;33.40;;;20.50;;
9884;SDS011;4981;50.966;4.842;2024-01-11T08:29:49;39.23;;;21.50;;
9884;SDS011;4981;50.966;4.842;2024-01-11T08:32:16;35.53;;;20.73;;
9884;SDS011;4981;50.966;4.842;2024-01-11T08:34:43;35.53;;;19.53;;
9884;SDS011;4981;50.966;4.842;2024-01-11T08:37:10;34.77;;;20.13;;
9884;SDS011;4981;50.966;4.842;2024-01-11T08:39:37;37.20;;;20.67;;
9884;SDS011;4981;50.966;4.842;2024-01-11T08:42:04;34.63;;;19.87;;
9884;SDS011;4981;50.966;4.842;2024-01-11T08:44:33;38.47;;;20.80;;
9884;SDS011;4981;50.966;4.842;2024-01-11T08:47:00;35.03;;;20.10;;
9884;SDS011;4981;50.966;4.842;2024-01-11T08:49:28;31.23;;;19.30;;
9884;SDS011;4981;50.966;4.842;2024-01-11T08:51:55;35.43;;;20.33;;
9884;SDS011;4981;50.966;4.842;2024-01-11T08:54:22;37.23;;;19.17;;
9884;SDS011;4981;50.966;4.842;2024-01-11T08:56:49;34.40;;;19.63;;
9884;SDS011;4981;50.966;4.842;2024-01-11T08:59:16;32.93;;;19.80;;
9884;SDS011;4981;50.966;4.842;2024-01-11T09:01:44;35.87;;;18.83;;
9884;SDS011;4981;50.966;4.842;2024-01-11T09:04:11;33.80;;;19.50;;
9884;SDS011;4981;50.966;4.842;2024-01-11T09:06:38;37.10;;;21.00;;
9884;SDS011;4981;50.966;4.842;2024-01-11T09:09:05;36.03;;;19.77;;
9884;SDS011;4981;50.966;4.842;2024-01-11T09:11:35;38.27;;;21.83;;
9884;SDS011;4981;50.966;4.842;2024-01-11T09:14:02;32.23;;;20.70;;
9884;SDS011;4981;50.966;4.842;2024-01-11T09:16:29;36.70;;;19.87;;
9884;SDS011;4981;50.966;4.842;2024-01-11T09:18:57;34.40;;;20.30;;
9884;SDS011;4981;50.966;4.842;2024-01-11T09:21:25;38.50;;;21.03;;
9884;SDS011;4981;50.966;4.842;2024-01-11T09:23:52;36.77;;;21.90;;
9884;SDS011;4981;50.966;4.842;2024-01-11T09:26:20;34.27;;;20.83;;
9884;SDS011;4981;50.966;4.842;2024-01-11T09:28:47;37.30;;;20.90;;
9884;SDS011;4981;50.966;4.842;2024-01-11T09:31:14;34.47;;;19.67;;
9884;SDS011;4981;50.966;4.842;2024-01-11T09:33:41;34.77;;;19.73;;
9884;SDS011;4981;50.966;4.842;2024-01-11T09:36:11;34.13;;;19.37;;
9884;SDS011;4981;50.966;4.842;2024-01-11T09:38:39;34.10;;;20.63;;
9884;SDS011;4981;50.966;4.842;2024-01-11T09:41:07;37.00;;;22.10;;
9884;SDS011;4981;50.966;4.842;2024-01-11T09:43:35;36.37;;;20.00;;
9884;SDS011;4981;50.966;4.842;2024-01-11T09:46:03;37.27;;;21.23;;
9884;SDS011;4981;50.966;4.842;2024-01-11T09:48:32;38.00;;;20.60;;
9884;SDS011;4981;50.966;4.842;2024-01-11T09:51:00;34.33;;;20.40;;
9884;SDS011;4981;50.966;4.842;2024-01-11T09:53:29;35.70;;;21.03;;
9884;SDS011;4981;50.966;4.842;2024-01-11T09:55:58;35.23;;;21.50;;
9884;SDS011;4981;50.966;4.842;2024-01-11T09:58:26;34.63;;;21.90;;
9884;SDS011;4981;50.966;4.842;2024-01-11T10:00:53;36.03;;;20.40;;
9884;SDS011;4981;50.966;4.842;2024-01-11T10:03:21;38.73;;;22.93;;
9884;SDS011;4981;50.966;4.842;2024-01-11T10:05:49;41.43;;;22.93;;
9884;SDS011;4981;50.966;4.842;2024-01-11T10:08:17;36.57;;;22.40;;
9884;SDS011;4981;50.966;4.842;2024-01-11T10:10:46;34.67;;;21.77;;
9884;SDS011;4981;50.966;4.842;2024-01-11T10:13:13;27.03;;;16.60;;
9884;SDS011;4981;50.966;4.842;2024-01-11T10:15:41;20.13;;;11.77;;
9884;SDS011;4981;50.966;4.842;2024-01-11T10:18:08;34.67;;;20.30;;
9884;SDS011;4981;50.966;4.842;2024-01-11T10:20:35;38.23;;;22.07;;
9884;SDS011;4981;50.966;4.842;2024-01-11T10:23:03;39.20;;;22.50;;
9884;SDS011;4981;50.966;4.842;2024-01-11T10:25:31;34.97;;;21.27;;
9884;SDS011;4981;50.966;4.842;2024-01-11T10:27:59;35.23;;;21.27;;
9884;SDS011;4981;50.966;4.842;2024-01-11T10:30:26;37.93;;;22.90;;
9884;SDS011;4981;50.966;4.842;2024-01-11T10:32:53;35.67;;;21.63;;
9884;SDS011;4981;50.966;4.842;2024-01-11T10:35:23;36.10;;;21.03;;
9884;SDS011;4981;50.966;4.842;2024-01-11T10:37:50;38.00;;;22.57;;
9884;SDS011;4981;50.966;4.842;2024-01-11T10:40:19;33.97;;;20.93;;
9884;SDS011;4981;50.966;4.842;2024-01-11T10:42:50;34.77;;;19.87;;
9884;SDS011;4981;50.966;4.842;2024-01-11T10:45:20;33.03;;;19.53;;
9884;SDS011;4981;50.966;4.842;2024-01-11T10:47:50;35.80;;;21.43;;
9884;SDS011;4981;50.966;4.842;2024-01-11T10:50:19;36.60;;;21.57;;
9884;SDS011;4981;50.966;4.842;2024-01-11T10:52:53;38.87;;;21.07;;
9884;SDS011;4981;50.966;4.842;2024-01-11T10:55:28;36.17;;;21.63;;
9884;SDS011;4981;50.966;4.842;2024-01-11T10:57:59;36.33;;;19.50;;
9884;SDS011;4981;50.966;4.842;2024-01-11T11:00:28;35.00;;;21.57;;
9884;SDS011;4981;50.966;4.842;2024-01-11T11:02:57;37.43;;;23.67;;
9884;SDS011;4981;50.966;4.842;2024-01-11T11:05:26;33.33;;;19.83;;
9884;SDS011;4981;50.966;4.842;2024-01-11T11:07:54;37.97;;;21.70;;
9884;SDS011;4981;50.966;4.842;2024-01-11T11:10:22;35.20;;;20.87;;
9884;SDS011;4981;50.966;4.842;2024-01-11T11:12:52;35.80;;;21.30;;
9884;SDS011;4981;50.966;4.842;2024-01-11T11:15:22;34.17;;;20.90;;
9884;SDS011;4981;50.966;4.842;2024-01-11T11:17:53;33.03;;;19.77;;
9884;SDS011;4981;50.966;4.842;2024-01-11T11:20:20;33.63;;;18.60;;
9884;SDS011;4981;50.966;4.842;2024-01-11T11:22:48;24.07;;;13.87;;
9884;SDS011;4981;50.966;4.842;2024-01-11T11:25:29;28.50;;;18.20;;
9884;SDS011;4981;50.966;4.842;2024-01-11T11:27:57;36.60;;;21.00;;
9884;SDS011;4981;50.966;4.842;2024-01-11T11:30:26;35.00;;;20.00;;
9884;SDS011;4981;50.966;4.842;2024-01-11T11:32:54;26.67;;;14.87;;
9884;SDS011;4981;50.966;4.842;2024-01-11T11:35:22;35.37;;;18.17;;
9884;SDS011;4981;50.966;4.842;2024-01-11T11:37:53;33.90;;;19.57;;
9884;SDS011;4981;50.966;4.842;2024-01-11T11:40:21;32.00;;;19.57;;
9884;SDS011;4981;50.966;4.842;2024-01-11T11:42:58;31.23;;;18.03;;
9884;SDS011;4981;50.966;4.842;2024-01-11T11:45:27;26.63;;;17.57;;
9884;SDS011;4981;50.966;4.842;2024-01-11T11:47:56;29.47;;;17.83;;
9884;SDS011;4981;50.966;4.842;2024-01-11T11:50:23;33.20;;;18.37;;
9884;SDS011;4981;50.966;4.842;2024-01-11T11:52:53;31.83;;;17.77;;
9884;SDS011;4981;50.966;4.842;2024-01-11T11:55:21;29.97;;;17.70;;
9884;SDS011;4981;50.966;4.842;2024-01-11T11:57:49;28.17;;;18.20;;
9884;SDS011;4981;50.966;4.842;2024-01-11T12:00:20;29.23;;;18.70;;
9884;SDS011;4981;50.966;4.842;2024-01-11T12:02:48;29.90;;;17.20;;
9884;SDS011;4981;50.966;4.842;2024-01-11T12:05:18;29.80;;;18.20;;
9884;SDS011;4981;50.966;4.842;2024-01-11T12:07:45;30.87;;;18.27;;
9884;SDS011;4981;50.966;4.842;2024-01-11T12:10:13;27.80;;;16.87;;
9884;SDS011;4981;50.966;4.842;2024-01-11T12:12:41;27.87;;;16.90;;
9884;SDS011;4981;50.966;4.842;2024-01-11T12:15:08;28.50;;;16.43;;
9884;SDS011;4981;50.966;4.842;2024-01-11T12:17:36;35.73;;;21.00;;
9884;SDS011;4981;50.966;4.842;2024-01-11T12:20:04;22.40;;;11.87;;
9884;SDS011;4981;50.966;4.842;2024-01-11T12:22:34;27.40;;;15.80;;
9884;SDS011;4981;50.966;4.842;2024-01-11T12:25:01;19.90;;;11.57;;
9884;SDS011;4981;50.966;4.842;2024-01-11T12:27:28;21.80;;;14.37;;
9884;SDS011;4981;50.966;4.842;2024-01-11T12:29:57;25.03;;;16.00;;
9884;SDS011;4981;50.966;4.842;2024-01-11T12:32:24;144.27;;;132.60;;
9884;SDS011;4981;50.966;4.842;2024-01-11T12:34:51;55.80;;;49.83;;
9884;SDS011;4981;50.966;4.842;2024-01-11T12:37:18;32.33;;;19.47;;
9884;SDS011;4981;50.966;4.842;2024-01-11T12:39:47;16.00;;;10.53;;
9884;SDS011;4981;50.966;4.842;2024-01-11T12:42:14;39.60;;;24.63;;
9884;SDS011;4981;50.966;4.842;2024-01-11T12:44:42;22.90;;;12.93;;
9884;SDS011;4981;50.966;4.842;2024-01-11T12:47:09;38.90;;;28.33;;
9884;SDS011;4981;50.966;4.842;2024-01-11T12:49:36;24.93;;;15.33;;
9884;SDS011;4981;50.966;4.842;2024-01-11T12:52:04;66.10;;;59.77;;
9884;SDS011;4981;50.966;4.842;2024-01-11T12:54:32;166.80;;;152.30;;
9884;SDS011;4981;50.966;4.842;2024-01-11T12:57:00;70.67;;;63.23;;
9884;SDS011;4981;50.966;4.842;2024-01-11T12:59:28;200.10;;;183.00;;
9884;SDS011;4981;50.966;4.842;2024-01-11T13:01:55;32.70;;;20.97;;
9884;SDS011;4981;50.966;4.842;2024-01-11T13:04:24;132.60;;;119.97;;
9884;SDS011;4981;50.966;4.842;2024-01-11T13:06:51;128.77;;;116.37;;
9884;SDS011;4981;50.966;4.842;2024-01-11T13:09:20;23.87;;;13.90;;
9884;SDS011;4981;50.966;4.842;2024-01-11T13:11:48;35.33;;;21.43;;
9884;SDS011;4981;50.966;4.842;2024-01-11T13:14:16;45.43;;;40.57;;
9884;SDS011;4981;50.966;4.842;2024-01-11T13:16:44;87.83;;;79.63;;
9884;SDS011;4981;50.966;4.842;2024-01-11T13:19:13;54.57;;;42.03;;
9884;SDS011;4981;50.966;4.842;2024-01-11T13:21:40;117.70;;;106.77;;
9884;SDS011;4981;50.966;4.842;2024-01-11T13:24:07;165.80;;;150.53;;
9884;SDS011;4981;50.966;4.842;2024-01-11T13:26:35;140.53;;;128.50;;
9884;SDS011;4981;50.966;4.842;2024-01-11T13:29:02;177.87;;;162.43;;
9884;SDS011;4981;50.966;4.842;2024-01-11T13:31:31;89.80;;;79.43;;
9884;SDS011;4981;50.966;4.842;2024-01-11T13:33:59;109.67;;;99.27;;
9884;SDS011;4981;50.966;4.842;2024-01-11T13:36:26;23.60;;;14.73;;
9884;SDS011;4981;50.966;4.842;2024-01-11T13:38:53;165.47;;;150.83;;
9884;SDS011;4981;50.966;4.842;2024-01-11T13:41:20;199.97;;;182.00;;
9884;SDS011;4981;50.966;4.842;2024-01-11T13:43:50;141.53;;;128.20;;
9884;SDS011;4981;50.966;4.842;2024-01-11T13:46:19;198.33;;;180.33;;
9884;SDS011;4981;50.966;4.842;2024-01-11T13:48:47;184.30;;;168.93;;
9884;SDS011;4981;50.966;4.842;2024-01-11T13:51:14;163.87;;;147.97;;
9884;SDS011;4981;50.966;4.842;2024-01-11T13:53:41;75.17;;;68.20;;
9884;SDS011;4981;50.966;4.842;2024-01-11T13:56:08;125.23;;;114.60;;
9884;SDS011;4981;50.966;4.842;2024-01-11T13:58:36;86.90;;;78.23;;
9884;SDS011;4981;50.966;4.842;2024-01-11T14:01:03;115.93;;;105.00;;
9884;SDS011;4981;50.966;4.842;2024-01-11T14:03:30;33.50;;;22.37;;
9884;SDS011;4981;50.966;4.842;2024-01-11T14:05:59;16.07;;;11.43;;
9884;SDS011;4981;50.966;4.842;2024-01-11T14:08:27;133.57;;;121.30;;
9884;SDS011;4981;50.966;4.842;2024-01-11T14:10:54;20.83;;;14.00;;
9884;SDS011;4981;50.966;4.842;2024-01-11T14:13:21;38.33;;;28.43;;
9884;SDS011;4981;50.966;4.842;2024-01-11T14:15:48;50.97;;;40.63;;
9884;SDS011;4981;50.966;4.842;2024-01-11T14:18:16;93.00;;;83.07;;
9884;SDS011;4981;50.966;4.842;2024-01-11T14:20:43;52.23;;;46.87;;
9884;SDS011;4981;50.966;4.842;2024-01-11T14:23:12;20.23;;;12.83;;
9884;SDS011;4981;50.966;4.842;2024-01-11T14:25:39;20.90;;;14.10;;
9884;SDS011;4981;50.966;4.842;2024-01-11T14:28:07;19.67;;;13.77;;
9884;SDS011;4981;50.966;4.842;2024-01-11T14:30:34;22.80;;;15.07;;
9884;SDS011;4981;50.966;4.842;2024-01-11T14:33:01;23.77;;;15.37;;
9884;SDS011;4981;50.966;4.842;2024-01-11T14:35:29;22.13;;;13.53;;
9884;SDS011;4981;50.966;4.842;2024-01-11T14:37:58;21.83;;;14.33;;
9884;SDS011;4981;50.966;4.842;2024-01-11T14:40:27;22.53;;;13.63;;
9884;SDS011;4981;50.966;4.842;2024-01-11T14:42:54;25.47;;;15.03;;
9884;SDS011;4981;50.966;4.842;2024-01-11T14:45:21;25.13;;;15.43;;
9884;SDS011;4981;50.966;4.842;2024-01-11T14:47:48;22.27;;;14.67;;